createdAt,value
2017-12-08T00:02:16.004Z,101052.55
2017-12-08T00:04:44.992Z,101054.77
2017-12-08T00:07:14.096Z,101056.84
2017-12-08T00:09:46.154Z,101054.77
2017-12-08T00:12:14.970Z,101053.06
2017-12-08T00:14:44.067Z,101048.29
2017-12-08T00:17:13.902Z,101053.23
2017-12-08T00:19:43.041Z,101048.55
2017-12-08T00:22:12.043Z,101049.75
2017-12-08T00:24:41.245Z,101049.20
2017-12-08T00:27:10.239Z,101045.48
2017-12-08T00:29:39.431Z,101042.55
2017-12-08T00:32:08.467Z,101038.75
2017-12-08T00:34:37.353Z,101034.36
2017-12-08T00:37:07.335Z,101033.22
2017-12-08T00:39:39.090Z,101024.87
2017-12-08T00:42:08.004Z,101029.34
2017-12-08T00:44:37.135Z,101018.64
2017-12-08T00:49:41.769Z,101017.04
2017-12-08T00:52:10.724Z,101017.84
2017-12-08T00:54:40.940Z,101021.70
2017-12-08T00:57:10.039Z,101021.30
2017-12-08T00:59:39.775Z,101016.64
2017-12-08T01:02:09.558Z,101019.69
2017-12-08T01:04:38.859Z,101016.66
2017-12-08T01:07:07.784Z,101016.94
2017-12-08T01:09:37.665Z,101018.03
2017-12-08T01:12:06.699Z,101012.47
2017-12-08T01:14:35.659Z,101010.25
2017-12-08T01:19:40.022Z,101005.64
2017-12-08T01:22:08.983Z,100995.95
2017-12-08T01:24:39.043Z,101001.41
2017-12-08T01:27:08.821Z,100989.13
2017-12-08T01:29:38.348Z,100989.65
2017-12-08T01:32:07.325Z,100980.16
2017-12-08T01:34:48.833Z,100983.23
2017-12-08T01:37:18.645Z,100986.83
2017-12-08T01:39:47.736Z,100983.98
2017-12-08T01:42:16.725Z,100981.98
2017-12-08T01:44:45.865Z,100983.70
2017-12-08T01:47:14.816Z,100975.31
2017-12-08T01:49:44.660Z,100973.17
2017-12-08T01:52:15.461Z,100970.62
2017-12-08T01:54:44.500Z,100969.81
2017-12-08T01:57:13.396Z,100964.53
2017-12-08T01:59:43.406Z,100962.64
2017-12-08T02:02:12.497Z,100962.17
2017-12-08T02:04:41.806Z,100961.02
2017-12-08T02:07:10.786Z,100966.55
2017-12-08T02:09:39.750Z,100958.55
2017-12-08T02:12:08.658Z,100953.91
2017-12-08T02:14:38.722Z,100946.72
2017-12-08T02:17:07.959Z,100950.60
2017-12-08T02:19:37.358Z,100949.31
2017-12-08T02:22:07.103Z,100941.31
2017-12-08T02:24:36.090Z,100943.47
2017-12-08T02:27:05.162Z,100941.40
2017-12-08T02:29:35.053Z,100946.09
2017-12-08T02:32:04.179Z,100938.94
2017-12-08T02:34:33.200Z,100931.05
2017-12-08T02:37:02.366Z,100930.70
2017-12-08T02:39:31.382Z,100922.72
2017-12-08T02:42:00.450Z,100925.64
2017-12-08T02:44:29.543Z,100920.76
2017-12-08T02:46:59.087Z,100931.38
2017-12-08T02:49:28.151Z,100932.25
2017-12-08T02:52:00.116Z,100935.55
2017-12-08T02:54:29.309Z,100944.77
2017-12-08T02:56:58.515Z,100945.22
2017-12-08T02:59:33.236Z,100945.33
2017-12-08T03:02:02.435Z,100948.09
2017-12-08T03:04:39.154Z,100945.04
2017-12-08T03:07:08.331Z,100948.84
2017-12-08T03:09:38.121Z,100946.40
2017-12-08T03:12:07.118Z,100943.73
2017-12-08T03:14:36.099Z,100937.05
2017-12-08T03:17:05.798Z,100937.11
2017-12-08T03:19:36.274Z,100935.13
2017-12-08T03:22:05.987Z,100932.05
2017-12-08T03:24:34.952Z,100937.44
2017-12-08T03:27:04.287Z,100940.26
2017-12-08T03:29:34.371Z,100950.77
2017-12-08T03:32:03.858Z,100955.70
2017-12-08T03:34:33.072Z,100955.17
2017-12-08T03:37:02.074Z,100954.28
2017-12-08T03:39:31.910Z,100960.17
2017-12-08T03:42:01.998Z,100957.98
2017-12-08T03:44:32.386Z,100955.03
2017-12-08T03:47:01.507Z,100958.48
2017-12-08T03:49:30.616Z,100954.99
2017-12-08T03:51:59.715Z,100954.64
2017-12-08T03:54:28.809Z,100958.81
2017-12-08T03:59:33.045Z,100952.25
2017-12-08T04:02:02.088Z,100953.56
2017-12-08T04:04:31.949Z,100952.39
2017-12-08T04:07:00.936Z,100954.66
2017-12-08T04:09:29.950Z,100950.12
2017-12-08T04:11:59.113Z,100947.16
2017-12-08T04:14:28.951Z,100947.20
2017-12-08T04:16:57.945Z,100947.11
2017-12-08T04:22:04.324Z,100948.16
2017-12-08T04:24:34.452Z,100953.34
2017-12-08T04:27:03.470Z,100951.05
2017-12-08T04:29:32.678Z,100944.87
2017-12-08T04:32:01.673Z,100949.20
2017-12-08T04:34:30.622Z,100945.34
2017-12-08T04:37:00.488Z,100942.02
2017-12-08T04:39:29.428Z,100942.83
2017-12-08T04:41:58.526Z,100944.94
2017-12-08T04:44:27.587Z,100948.73
2017-12-08T04:47:03.808Z,100949.52
2017-12-08T04:49:33.941Z,100943.84
2017-12-08T04:52:02.910Z,100945.98
2017-12-08T04:54:32.031Z,100944.26
2017-12-08T04:57:01.040Z,100945.06
2017-12-08T04:59:29.920Z,100947.73
2017-12-08T05:01:59.010Z,100949.42
2017-12-08T05:04:28.906Z,100948.45
2017-12-08T05:06:58.170Z,100951.30
2017-12-08T05:09:27.070Z,100951.50
2017-12-08T05:11:57.068Z,100960.28
2017-12-08T05:14:26.008Z,100955.80
2017-12-08T05:16:55.300Z,100955.59
2017-12-08T05:19:25.144Z,100966.16
2017-12-08T05:21:56.753Z,100968.28
2017-12-08T05:24:26.008Z,100965.22
2017-12-08T05:26:56.084Z,100963.51
2017-12-08T05:29:26.003Z,100968.85
2017-12-08T05:31:55.842Z,100960.42
2017-12-08T05:34:24.954Z,100967.09
2017-12-08T05:36:54.048Z,100965.39
2017-12-08T05:39:23.229Z,100964.04
2017-12-08T05:41:53.231Z,100966.87
2017-12-08T05:44:22.213Z,100967.58
2017-12-08T05:49:27.173Z,100967.98
2017-12-08T05:51:56.160Z,100976.75
2017-12-08T05:54:25.362Z,100970.09
2017-12-08T05:56:55.220Z,100966.42
2017-12-08T05:59:24.369Z,100962.05
2017-12-08T06:01:53.416Z,100966.08
2017-12-08T06:04:26.040Z,100956.61
2017-12-08T06:06:55.039Z,100962.77
2017-12-08T06:09:24.071Z,100955.63
2017-12-08T06:11:53.150Z,100958.01
2017-12-08T06:14:22.265Z,100954.17
2017-12-08T06:16:51.213Z,100955.66
2017-12-08T06:19:21.265Z,100950.38
2017-12-08T06:21:50.374Z,100948.41
2017-12-08T06:24:19.323Z,100949.75
2017-12-08T06:26:48.423Z,100949.50
2017-12-08T06:29:17.495Z,100944.12
2017-12-08T06:31:47.157Z,100947.96
2017-12-08T06:34:16.248Z,100950.48
2017-12-08T06:36:45.154Z,100940.12
2017-12-08T06:39:14.207Z,100938.22
2017-12-08T06:41:43.237Z,100940.98
2017-12-08T06:44:12.292Z,100945.02
2017-12-08T06:46:42.967Z,100937.96
2017-12-08T06:49:13.862Z,100947.06
2017-12-08T06:51:43.886Z,100949.02
2017-12-08T06:54:13.796Z,100947.92
2017-12-08T06:56:44.636Z,100953.18
2017-12-08T06:59:13.832Z,100952.72
2017-12-08T07:01:43.821Z,100955.78
2017-12-08T07:06:48.495Z,100957.23
2017-12-08T07:09:17.692Z,100947.59
2017-12-08T07:11:46.730Z,100943.92
2017-12-08T07:14:15.912Z,100940.61
2017-12-08T07:19:24.709Z,100932.02
2017-12-08T07:21:53.824Z,100922.09
2017-12-08T07:24:23.018Z,100926.08
2017-12-08T07:26:53.964Z,100917.04
2017-12-08T07:29:22.801Z,100916.28
2017-12-08T07:34:25.589Z,100905.59
2017-12-08T07:36:54.405Z,100906.17
2017-12-08T07:39:29.984Z,100903.37
2017-12-08T07:42:00.703Z,100908.16
2017-12-08T07:44:31.492Z,100912.00
2017-12-08T07:47:01.387Z,100910.42
2017-12-08T07:49:30.987Z,100909.61
2017-12-08T07:52:00.216Z,100911.33
2017-12-08T07:54:29.316Z,100916.04
2017-12-08T07:56:58.177Z,100917.75
2017-12-08T07:59:28.903Z,100916.09
2017-12-08T08:01:57.897Z,100917.84
2017-12-08T08:04:26.767Z,100908.53
2017-12-08T08:06:55.811Z,100902.68
2017-12-08T08:09:24.861Z,100902.27
2017-12-08T08:11:54.687Z,100900.59
2017-12-08T08:14:25.842Z,100894.27
2017-12-08T08:16:56.056Z,100903.18
2017-12-08T08:19:29.546Z,100897.25
2017-12-08T08:21:58.649Z,100893.89
2017-12-08T08:24:32.136Z,100893.05
2017-12-08T08:27:01.654Z,100890.96
2017-12-08T08:29:30.855Z,100893.08
2017-12-08T08:31:59.850Z,100892.22
2017-12-08T08:34:29.030Z,100889.28
2017-12-08T08:36:58.189Z,100885.03
2017-12-08T08:39:29.187Z,100893.92
2017-12-08T08:41:58.259Z,100889.70
2017-12-08T08:44:27.377Z,100894.37
2017-12-08T08:49:32.244Z,100890.13
2017-12-08T08:52:01.623Z,100883.74
2017-12-08T08:54:30.867Z,100885.44
2017-12-08T08:56:59.953Z,100887.55
2017-12-08T08:59:29.962Z,100892.65
2017-12-08T09:01:59.852Z,100887.53
2017-12-08T09:04:28.946Z,100887.49
2017-12-08T09:06:58.047Z,100885.38
2017-12-08T09:09:30.009Z,100875.62
2017-12-08T09:11:59.133Z,100881.60
2017-12-08T09:14:28.225Z,100871.00
2017-12-08T09:16:58.115Z,100861.69
2017-12-08T09:19:27.161Z,100862.53
2017-12-08T09:22:02.551Z,100855.77
2017-12-08T09:24:34.331Z,100855.75
2017-12-08T09:27:06.259Z,100857.86
2017-12-08T09:29:35.779Z,100862.95
2017-12-08T09:32:04.772Z,100865.50
2017-12-08T09:34:33.984Z,100861.66
2017-12-08T09:37:03.794Z,100854.44
2017-12-08T09:39:32.962Z,100856.10
2017-12-08T09:42:04.451Z,100851.45
2017-12-08T09:44:33.429Z,100850.55
2017-12-08T09:47:02.514Z,100845.03
2017-12-08T09:49:32.002Z,100849.67
2017-12-08T09:52:01.053Z,100845.38
2017-12-08T09:54:30.223Z,100836.89
2017-12-08T09:56:59.826Z,100835.98
2017-12-08T09:59:28.926Z,100830.85
2017-12-08T10:01:58.021Z,100815.93
2017-12-08T10:04:26.882Z,100809.50
2017-12-08T10:06:55.732Z,100803.08
2017-12-08T10:09:24.578Z,100803.03
2017-12-08T10:11:54.418Z,100801.69
2017-12-08T10:14:23.238Z,100799.50
2017-12-08T10:16:52.070Z,100801.19
2017-12-08T10:19:22.415Z,100801.96
2017-12-08T10:21:52.109Z,100796.87
2017-12-08T10:24:21.399Z,100787.84
2017-12-08T10:26:55.869Z,100794.62
2017-12-08T10:29:25.119Z,100786.91
2017-12-08T10:31:54.859Z,100789.88
2017-12-08T10:34:24.976Z,100787.26
2017-12-08T10:36:54.178Z,100797.78
2017-12-08T10:39:23.270Z,100790.88
2017-12-08T10:41:53.429Z,100782.73
2017-12-08T10:44:22.380Z,100775.06
2017-12-08T10:46:51.378Z,100778.80
2017-12-08T10:49:22.934Z,100768.13
2017-12-08T10:51:51.923Z,100765.05
2017-12-08T10:54:21.887Z,100754.32
2017-12-08T10:56:51.680Z,100750.36
2017-12-08T10:59:21.604Z,100755.87
2017-12-08T11:01:50.562Z,100753.28
2017-12-08T11:04:20.536Z,100739.67
2017-12-08T11:06:49.538Z,100735.75
2017-12-08T11:09:18.771Z,100732.28
2017-12-08T11:11:48.727Z,100736.06
2017-12-08T11:14:17.682Z,100728.80
2017-12-08T11:16:46.877Z,100725.36
2017-12-08T11:19:17.752Z,100718.56
2017-12-08T11:21:46.771Z,100722.92
2017-12-08T11:24:17.140Z,100720.71
2017-12-08T11:26:49.616Z,100715.99
2017-12-08T11:29:18.664Z,100719.39
2017-12-08T11:31:47.809Z,100714.29
2017-12-08T11:34:18.718Z,100714.25
2017-12-08T11:36:47.839Z,100713.42
2017-12-08T11:39:16.805Z,100711.25
2017-12-08T11:41:47.975Z,100707.03
2017-12-08T11:44:17.064Z,100711.21
2017-12-08T11:46:45.949Z,100705.27
2017-12-08T11:49:16.702Z,100716.69
2017-12-08T11:51:47.123Z,100713.98
2017-12-08T11:54:16.222Z,100707.17
2017-12-08T11:56:45.322Z,100708.88
2017-12-08T11:59:15.038Z,100702.91
2017-12-08T12:01:44.056Z,100710.15
2017-12-08T12:04:15.891Z,100706.78
2017-12-08T12:06:44.709Z,100705.09
2017-12-08T12:09:13.506Z,100701.25
2017-12-08T12:11:43.224Z,100703.77
2017-12-08T12:14:16.953Z,100699.41
2017-12-08T12:16:45.781Z,100701.52
2017-12-08T12:19:14.596Z,100697.30
2017-12-08T12:21:43.430Z,100697.27
2017-12-08T12:24:12.340Z,100695.48
2017-12-08T12:26:41.139Z,100701.05
2017-12-08T12:29:09.996Z,100696.34
2017-12-08T12:31:38.855Z,100698.07
2017-12-08T12:34:07.643Z,100695.03
2017-12-08T12:36:36.424Z,100695.96
2017-12-08T12:39:06.179Z,100701.53
2017-12-08T12:41:34.968Z,100690.87
2017-12-08T12:44:03.940Z,100695.64
2017-12-08T12:51:43.899Z,100678.30
2017-12-08T12:54:12.927Z,100682.48
2017-12-08T12:56:41.957Z,100685.10
2017-12-08T12:59:11.766Z,100681.70
2017-12-08T13:01:41.717Z,100685.07
2017-12-08T13:04:11.702Z,100684.78
2017-12-08T13:06:42.646Z,100679.75
2017-12-08T13:09:11.636Z,100684.56
2017-12-08T13:11:42.491Z,100688.92
2017-12-08T13:14:11.556Z,100684.86
2017-12-08T13:16:40.605Z,100686.00
2017-12-08T13:19:09.586Z,100683.59
2017-12-08T13:21:41.150Z,100686.45
2017-12-08T13:24:10.857Z,100690.41
2017-12-08T13:26:40.562Z,100689.33
2017-12-08T13:29:09.370Z,100684.39
2017-12-08T13:31:38.245Z,100685.33
2017-12-08T13:34:07.047Z,100682.47
2017-12-08T13:36:36.700Z,100684.17
2017-12-08T13:39:05.554Z,100685.91
2017-12-08T13:41:34.495Z,100684.20
2017-12-08T13:44:03.354Z,100678.72
2017-12-08T13:46:32.220Z,100680.45
2017-12-08T13:49:01.147Z,100677.55
2017-12-08T13:51:32.670Z,100676.30
2017-12-08T13:54:13.331Z,100675.45
2017-12-08T13:56:54.388Z,100678.00
2017-12-08T13:59:23.355Z,100684.44
2017-12-08T14:01:52.402Z,100684.87
2017-12-08T14:04:21.444Z,100685.36
2017-12-08T14:06:50.512Z,100691.76
2017-12-08T14:09:20.292Z,100685.02
2017-12-08T14:11:51.292Z,100684.23
2017-12-08T14:14:20.257Z,100691.45
2017-12-08T14:16:50.198Z,100685.15
2017-12-08T14:19:20.252Z,100687.73
2017-12-08T14:21:49.219Z,100690.73
2017-12-08T14:24:18.141Z,100691.19
2017-12-08T14:26:47.206Z,100692.92
2017-12-08T14:29:16.195Z,100691.23
2017-12-08T14:31:45.032Z,100688.69
2017-12-08T14:34:13.928Z,100691.22
2017-12-08T14:36:42.869Z,100688.66
2017-12-08T14:39:11.684Z,100684.82
2017-12-08T14:41:40.550Z,100688.20
2017-12-08T14:44:09.430Z,100685.67
2017-12-08T14:46:38.899Z,100683.09
2017-12-08T14:49:07.755Z,100685.21
2017-12-08T14:51:36.595Z,100685.63
2017-12-08T14:54:05.429Z,100682.66
2017-12-08T14:56:34.357Z,100685.58
2017-12-08T14:59:03.185Z,100691.03
2017-12-08T15:01:32.024Z,100688.91
2017-12-08T15:04:02.948Z,100687.21
2017-12-08T15:06:31.799Z,100683.39
2017-12-08T15:09:00.626Z,100687.61
2017-12-08T15:11:31.514Z,100695.14
2017-12-08T15:14:00.438Z,100690.41
2017-12-08T15:16:29.334Z,100690.81
2017-12-08T15:18:59.082Z,100687.42
2017-12-08T15:21:27.958Z,100690.74
2017-12-08T15:23:56.848Z,100691.13
2017-12-08T15:26:25.714Z,100681.72
2017-12-08T15:28:54.596Z,100684.92
2017-12-08T15:31:23.406Z,100679.27
2017-12-08T15:33:52.320Z,100686.88
2017-12-08T15:36:21.278Z,100686.47
2017-12-08T15:38:50.138Z,100683.69
2017-12-08T15:41:19.885Z,100679.20
2017-12-08T15:43:48.729Z,100682.70
2017-12-08T15:46:17.589Z,100677.69
2017-12-08T15:48:46.640Z,100670.12
2017-12-08T15:51:15.594Z,100673.08
2017-12-08T15:53:44.676Z,100665.52
2017-12-08T15:56:13.744Z,100661.75
2017-12-08T15:58:43.060Z,100659.27
2017-12-08T16:01:11.958Z,100654.63
2017-12-08T16:03:40.933Z,100653.83
2017-12-08T16:06:09.809Z,100648.33
2017-12-08T16:08:38.644Z,100648.75
2017-12-08T16:11:08.386Z,100650.45
2017-12-08T16:13:37.304Z,100649.19
2017-12-08T16:16:06.186Z,100654.69
2017-12-08T16:18:35.159Z,100647.53
2017-12-08T16:21:04.017Z,100648.80
2017-12-08T16:23:32.932Z,100648.38
2017-12-08T16:26:01.968Z,100644.56
2017-12-08T16:28:30.913Z,100638.63
2017-12-08T16:30:59.754Z,100644.17
2017-12-08T16:33:29.534Z,100637.81
2017-12-08T16:35:58.397Z,100642.47
2017-12-08T16:38:27.366Z,100635.69
2017-12-08T16:40:57.104Z,100638.68
2017-12-08T16:43:25.987Z,100633.15
2017-12-08T16:45:54.952Z,100631.05
2017-12-08T16:48:25.880Z,100635.71
2017-12-08T16:53:21.982Z,100635.28
2017-12-08T16:55:50.869Z,100637.40
2017-12-08T16:58:19.779Z,100638.24
2017-12-08T17:00:48.651Z,100642.91
2017-12-08T17:03:18.408Z,100642.06
2017-12-08T17:05:47.308Z,100642.92
2017-12-08T17:08:16.277Z,100651.36
2017-12-08T17:10:46.082Z,100643.75
2017-12-08T17:13:15.048Z,100646.26
2017-12-08T17:15:44.025Z,100642.88
2017-12-08T17:18:18.547Z,100643.72
2017-12-08T17:20:48.731Z,100636.95
2017-12-08T17:23:18.794Z,100641.60
2017-12-08T17:25:47.874Z,100643.72
2017-12-08T17:28:17.151Z,100633.56
2017-12-08T17:30:46.192Z,100634.41
2017-12-08T17:33:15.187Z,100634.02
2017-12-08T17:35:44.320Z,100633.58
2017-12-08T17:38:13.768Z,100632.31
2017-12-08T17:40:43.479Z,100628.50
2017-12-08T17:43:12.482Z,100631.47
2017-12-08T17:45:41.424Z,100633.58
2017-12-08T17:48:12.091Z,100634.41
2017-12-08T17:50:41.225Z,100637.80
2017-12-08T17:53:10.169Z,100632.26
2017-12-08T17:58:14.275Z,100634.37
2017-12-08T18:00:43.550Z,100633.95
2017-12-08T18:03:12.531Z,100632.26
2017-12-08T18:05:41.802Z,100633.09
2017-12-08T18:08:11.152Z,100632.25
2017-12-08T18:10:40.114Z,100640.25
2017-12-08T18:13:09.360Z,100644.48
2017-12-08T18:15:38.684Z,100632.61
2017-12-08T18:18:07.763Z,100636.84
2017-12-08T18:20:37.703Z,100630.08
2017-12-08T18:23:06.717Z,100622.42
2017-12-08T18:25:35.661Z,100625.81
2017-12-08T18:28:04.664Z,100626.64
2017-12-08T18:30:33.757Z,100626.22
2017-12-08T18:33:02.746Z,100622.83
2017-12-08T18:35:31.862Z,100629.54
2017-12-08T18:38:00.837Z,100629.53
2017-12-08T18:40:29.761Z,100626.97
2017-12-08T18:42:58.822Z,100637.95
2017-12-08T18:45:27.930Z,100631.56
2017-12-08T18:47:57.042Z,100628.58
2017-12-08T18:50:27.166Z,100628.55
2017-12-08T18:52:56.070Z,100631.05
2017-12-08T18:55:25.314Z,100627.23
2017-12-08T18:57:58.508Z,100624.67
2017-12-08T19:00:27.613Z,100626.34
2017-12-08T19:02:58.125Z,100627.95
2017-12-08T19:05:27.520Z,100622.00
2017-12-08T19:07:57.064Z,100621.03
2017-12-08T19:10:26.436Z,100626.47
2017-12-08T19:12:58.727Z,100625.23
2017-12-08T19:15:27.763Z,100629.02
2017-12-08T19:18:00.480Z,100627.72
2017-12-08T19:20:29.508Z,100623.91
2017-12-08T19:22:58.600Z,100624.73
2017-12-08T19:28:04.364Z,100629.30
2017-12-08T19:30:33.412Z,100624.19
2017-12-08T19:33:02.710Z,100625.86
2017-12-08T19:35:32.002Z,100625.86
2017-12-08T19:38:02.290Z,100625.85
2017-12-08T19:40:35.396Z,100623.69
2017-12-08T19:43:05.520Z,100625.75
2017-12-08T19:45:34.809Z,100626.56
2017-12-08T19:48:05.322Z,100626.13
2017-12-08T19:50:34.327Z,100621.45
2017-12-08T19:53:03.386Z,100622.73
2017-12-08T19:55:34.009Z,100621.39
2017-12-08T19:58:02.851Z,100615.48
2017-12-08T20:00:32.037Z,100610.37
2017-12-08T20:03:02.618Z,100616.69
2017-12-08T20:05:31.603Z,100613.73
2017-12-08T20:08:00.474Z,100611.20
2017-12-08T20:10:29.332Z,100598.56
2017-12-08T20:12:58.255Z,100595.22
2017-12-08T20:15:27.329Z,100605.42
2017-12-08T20:17:56.385Z,100602.97
2017-12-08T20:20:26.783Z,100597.98
2017-12-08T20:22:56.757Z,100602.66
2017-12-08T20:28:01.049Z,100597.57
2017-12-08T20:30:30.094Z,100602.56
2017-12-08T20:33:06.043Z,100601.67
2017-12-08T20:35:35.137Z,100599.52
2017-12-08T20:38:04.354Z,100598.60
2017-12-08T20:40:34.330Z,100595.61
2017-12-08T20:43:13.723Z,100581.66
2017-12-08T20:45:43.718Z,100575.34
2017-12-08T20:48:14.696Z,100579.16
2017-12-08T20:50:44.568Z,100584.25
2017-12-08T20:53:15.108Z,100579.58
2017-12-08T20:55:44.373Z,100575.80
2017-12-08T20:58:14.270Z,100582.56
2017-12-08T21:00:43.387Z,100573.68
2017-12-08T21:03:12.752Z,100573.63
2017-12-08T21:05:42.329Z,100582.83
2017-12-08T21:08:11.545Z,100581.00
2017-12-08T21:10:41.484Z,100572.86
2017-12-08T21:13:10.711Z,100574.11
2017-12-08T21:15:40.664Z,100574.92
2017-12-08T21:18:10.066Z,100574.41
2017-12-08T21:20:40.303Z,100575.63
2017-12-08T21:23:09.325Z,100571.42
2017-12-08T21:25:41.872Z,100564.68
2017-12-08T21:28:12.601Z,100555.73
2017-12-08T21:30:43.499Z,100559.02
2017-12-08T21:33:14.172Z,100558.53
2017-12-08T21:35:43.950Z,100553.86
2017-12-08T21:40:50.285Z,100556.16
2017-12-08T21:43:19.361Z,100548.89
2017-12-08T21:45:48.631Z,100551.79
2017-12-08T21:48:19.432Z,100553.41
2017-12-08T21:50:48.437Z,100550.52
2017-12-08T21:53:19.029Z,100545.16
2017-12-08T21:55:48.991Z,100534.33
2017-12-08T21:58:18.856Z,100521.28
2017-12-08T22:00:48.054Z,100534.45
2017-12-08T22:03:18.022Z,100542.89
2017-12-08T22:05:47.005Z,100542.45
2017-12-08T22:08:17.014Z,100534.86
2017-12-08T22:10:46.090Z,100536.98
2017-12-08T22:13:16.021Z,100537.38
2017-12-08T22:15:45.086Z,100539.47
2017-12-08T22:18:14.227Z,100536.11
2017-12-08T22:20:43.229Z,100532.75
2017-12-08T22:23:12.271Z,100522.70
2017-12-08T22:25:42.291Z,100514.68
2017-12-08T22:28:11.822Z,100515.47
2017-12-08T22:30:40.901Z,100513.44
2017-12-08T22:33:11.858Z,100511.81
2017-12-08T22:35:40.965Z,100511.03
2017-12-08T22:38:10.432Z,100514.81
2017-12-08T22:40:41.883Z,100510.56
2017-12-08T22:43:13.105Z,100513.59
2017-12-08T22:45:44.709Z,100511.54
2017-12-08T22:48:13.880Z,100504.40
2017-12-08T22:50:43.852Z,100496.75
2017-12-08T22:53:13.505Z,100492.95
2017-12-08T22:55:42.751Z,100485.75
2017-12-08T22:58:11.697Z,100486.08
2017-12-08T23:00:41.512Z,100485.63
2017-12-08T23:03:11.274Z,100484.81
2017-12-08T23:05:40.282Z,100478.91
2017-12-08T23:08:10.297Z,100477.22
2017-12-08T23:10:39.633Z,100466.23
2017-12-08T23:13:08.733Z,100469.63
2017-12-08T23:15:37.740Z,100463.31
2017-12-08T23:18:06.825Z,100462.48
2017-12-08T23:20:36.009Z,100459.21
2017-12-08T23:23:08.597Z,100447.48
2017-12-08T23:25:37.725Z,100444.14
2017-12-08T23:28:06.824Z,100431.56
2017-12-08T23:33:11.411Z,100442.58
2017-12-08T23:35:40.517Z,100438.84
2017-12-08T23:40:45.229Z,100433.31
2017-12-08T23:43:15.233Z,100442.89
2017-12-08T23:45:45.464Z,100435.26
2017-12-08T23:48:14.993Z,100431.15
2017-12-08T23:50:44.228Z,100433.41
2017-12-08T23:53:14.122Z,100436.85
2017-12-08T23:55:43.327Z,100433.98
2017-12-08T23:58:12.551Z,100424.73
